Time;durP1;ratioP1;P1;durP2;ratioP2;P2;SDS_P1;SDS_P2;PMS_P1;PMS_P2;Temp;Humidity;BMP_temperature;BMP_pressure;BME280_temperature;BME280_humidity;BME280_pressure;Samples;Min_cycle;Max_cycle;Signal;HPM_P1;HPM_P2
2023/12/04 00:01:58;;;;;;;18.02;11.10;;;;;;;3.75;97.51;99861.59;5090131;28;20020;-75
2023/12/04 00:04:23;;;;;;;17.85;10.45;;;;;;;3.82;97.87;99854.94;5091379;28;20432;-75
2023/12/04 00:06:49;;;;;;;15.65;9.40;;;;;;;3.87;97.84;99871.56;5073274;28;20081;-75
2023/12/04 00:09:14;;;;;;;16.23;9.55;;;;;;;3.79;95.89;99882.06;5091289;28;20027;-75
2023/12/04 00:11:40;;;;;;;17.30;10.57;;;;;;;3.87;98.07;99879.84;5096888;28;20035;-75
2023/12/04 00:14:05;;;;;;;17.25;10.57;;;;;;;3.75;96.65;99878.22;5111277;28;20027;-75
2023/12/04 00:16:34;;;;;;;26.83;15.07;;;;;;;3.66;96.68;99874.34;5089346;28;20034;-75
2023/12/04 00:19:00;;;;;;;22.83;13.13;;;;;;;3.69;97.74;99887.63;5091192;28;20016;-75
2023/12/04 00:21:25;;;;;;;21.50;12.55;;;;;;;3.59;98.05;99890.38;5094603;28;20022;-75
2023/12/04 00:23:50;;;;;;;22.08;10.75;;;;;;;3.60;97.15;99898.41;5092764;28;20031;-75
2023/12/04 00:26:16;;;;;;;20.50;9.95;;;;;;;3.64;96.54;99902.28;5094563;28;20035;-75
2023/12/04 00:28:41;;;;;;;13.10;8.18;;;;;;;3.63;96.22;99897.03;5072989;28;20090;-75
2023/12/04 00:31:08;;;;;;;13.43;8.20;;;;;;;3.61;96.64;99916.69;5092921;28;20025;-75
2023/12/04 00:33:34;;;;;;;12.40;9.30;;;;;;;3.59;98.51;99918.06;5100192;28;20027;-75
2023/12/04 00:35:59;;;;;;;15.68;9.98;;;;;;;3.67;97.68;99925.81;5091205;28;20408;-75
2023/12/04 00:38:24;;;;;;;14.40;9.43;;;;;;;3.74;96.51;99933.81;5089683;28;20024;-75
2023/12/04 00:40:50;;;;;;;14.82;8.57;;;;;;;3.71;95.43;99931.63;5093431;28;20043;-75
2023/12/04 00:43:16;;;;;;;14.05;9.55;;;;;;;3.70;96.28;99936.31;5110438;28;20073;-75
2023/12/04 00:45:41;;;;;;;15.30;8.98;;;;;;;3.63;94.16;99941.31;5110541;28;20031;-75
2023/12/04 00:48:07;;;;;;;14.52;9.40;;;;;;;3.56;94.34;99932.44;5079048;28;20080;-75
2023/12/04 00:50:32;;;;;;;14.27;8.68;;;;;;;3.59;95.51;99934.66;5072542;28;20031;-75
2023/12/04 00:52:57;;;;;;;16.30;10.02;;;;;;;3.59;94.83;99938.25;5092235;28;20024;-75
2023/12/04 00:55:23;;;;;;;13.95;8.00;;;;;;;3.60;94.91;99930.78;5090884;28;20024;-75
2023/12/04 00:57:49;;;;;;;15.02;8.75;;;;;;;3.47;94.75;99949.59;5072791;28;20413;-75
2023/12/04 01:00:15;;;;;;;13.98;8.77;;;;;;;3.59;93.76;99960.38;5090732;28;20020;-75
2023/12/04 01:02:40;;;;;;;15.13;8.38;;;;;;;3.51;94.65;99956.25;5090738;28;20085;-75
2023/12/04 01:05:06;;;;;;;17.25;9.85;;;;;;;3.70;97.08;99952.91;5090909;28;20032;-75
2023/12/04 01:07:31;;;;;;;18.27;9.43;;;;;;;3.66;95.69;99946.28;5089592;28;20023;-75
2023/12/04 01:09:57;;;;;;;12.93;8.98;;;;;;;3.60;96.44;99942.69;5090598;28;20021;-75
2023/12/04 01:12:23;;;;;;;13.82;8.18;;;;;;;3.43;93.70;99942.94;5103349;28;20419;-75
2023/12/04 01:14:48;;;;;;;11.35;6.90;;;;;;;3.37;92.12;99949.56;5107340;28;20019;-75
2023/12/04 01:17:13;;;;;;;13.18;8.52;;;;;;;3.43;93.48;99959.53;5090239;28;20039;-75
2023/12/04 01:19:39;;;;;;;13.35;8.13;;;;;;;3.27;95.29;99967.00;5090600;28;20051;-75
2023/12/04 01:22:05;;;;;;;12.73;8.60;;;;;;;3.32;95.87;99957.88;5099419;28;20031;-75
2023/12/04 01:24:30;;;;;;;13.32;8.48;;;;;;;3.28;96.68;99954.00;5106260;28;20101;-75
2023/12/04 01:26:56;;;;;;;10.75;6.82;;;;;;;3.39;96.45;99957.59;5090746;28;20109;-75
2023/12/04 01:29:21;;;;;;;16.52;7.68;;;;;;;3.40;96.08;99965.63;5072203;28;20028;-75
2023/12/04 01:31:47;;;;;;;11.65;7.95;;;;;;;3.51;95.10;99961.78;5081949;28;20020;-75
2023/12/04 01:34:12;;;;;;;18.13;10.10;;;;;;;3.48;98.18;99962.31;5109574;28;20024;-75
2023/12/04 01:36:41;;;;;;;13.90;8.45;;;;;;;3.65;96.60;99967.56;5096155;28;20022;-75
2023/12/04 01:39:06;;;;;;;16.20;10.02;;;;;;;3.63;96.18;99958.72;5108447;28;20031;-75
2023/12/04 01:41:31;;;;;;;15.25;8.95;;;;;;;3.50;94.19;99965.66;5095796;28;20047;-75
2023/12/04 01:43:57;;;;;;;15.48;9.10;;;;;;;3.49;95.95;99960.38;5096128;28;20016;-75
2023/12/04 01:46:23;;;;;;;13.90;8.60;;;;;;;3.53;95.38;99967.00;5114239;28;20510;-75
2023/12/04 01:48:49;;;;;;;13.40;8.93;;;;;;;3.51;95.12;99960.94;5114265;28;20020;-75
2023/12/04 01:51:17;;;;;;;14.70;9.20;;;;;;;3.47;96.10;99960.66;5106242;28;20051;-75
2023/12/04 01:53:43;;;;;;;16.17;10.55;;;;;;;3.45;97.39;99962.06;5095010;28;20090;-75
2023/12/04 01:56:09;;;;;;;14.30;10.23;;;;;;;3.53;96.87;99966.19;5093763;28;20514;-75
2023/12/04 01:58:34;;;;;;;13.85;8.52;;;;;;;3.48;95.65;99951.25;5093770;28;20099;-75
2023/12/04 02:01:01;;;;;;;10.98;7.07;;;;;;;3.48;94.73;99956.78;5093589;28;20482;-75
2023/12/04 02:03:27;;;;;;;9.68;7.07;;;;;;;3.47;93.40;99968.94;5093687;28;20024;-75
2023/12/04 02:05:53;;;;;;;11.43;7.13;;;;;;;3.32;93.61;99968.94;5093466;28;20020;-75
2023/12/04 02:08:18;;;;;;;8.90;6.63;;;;;;;3.41;91.92;99970.06;5093281;28;20027;-75
2023/12/04 02:10:44;;;;;;;11.38;7.43;;;;;;;3.25;90.43;99971.97;5095445;28;20035;-75
2023/12/04 02:13:10;;;;;;;9.18;6.63;;;;;;;3.27;91.00;99963.41;5109764;28;20047;-75
2023/12/04 02:15:36;;;;;;;13.93;7.72;;;;;;;3.30;92.02;99976.69;5075095;28;20488;-75
2023/12/04 02:18:03;;;;;;;9.20;6.63;;;;;;;3.23;91.07;99976.94;5093357;28;20032;-75
2023/12/04 02:20:33;;;;;;;11.32;7.47;;;;;;;3.29;90.57;99981.38;5093329;28;20405;-75
2023/12/04 02:22:59;;;;;;;13.73;7.85;;;;;;;3.27;90.32;99991.06;5109454;28;20027;-75
2023/12/04 02:25:25;;;;;;;11.75;7.60;;;;;;;3.20;90.13;99994.91;5107755;28;20103;-75
2023/12/04 02:27:52;;;;;;;10.23;6.85;;;;;;;3.23;88.38;99991.59;5093145;28;20027;-75
2023/12/04 02:30:20;;;;;;;10.77;7.00;;;;;;;3.22;89.06;99981.63;5091739;28;20028;-75
2023/12/04 02:32:47;;;;;;;10.65;7.68;;;;;;;3.11;88.99;99993.75;5113059;28;20023;-75
2023/12/04 02:35:16;;;;;;;11.38;7.95;;;;;;;3.00;89.15;99990.16;5113220;28;20080;-75
2023/12/04 02:37:42;;;;;;;10.77;7.00;;;;;;;2.97;89.07;100004.53;5113338;28;20031;-75
2023/12/04 02:40:08;;;;;;;12.18;6.93;;;;;;;2.93;88.84;100009.75;5094835;28;20430;-75
2023/12/04 02:42:34;;;;;;;11.45;7.00;;;;;;;2.93;89.20;100009.75;5106759;28;20504;-75
2023/12/04 02:44:59;;;;;;;16.10;9.50;;;;;;;2.88;89.01;100001.44;5092797;28;20077;-75
2023/12/04 02:47:25;;;;;;;14.15;8.40;;;;;;;2.86;87.59;100006.41;5092379;28;20081;-75
2023/12/04 02:49:51;;;;;;;12.45;7.30;;;;;;;2.87;88.04;100004.47;5092708;28;20016;-75
2023/12/04 02:52:16;;;;;;;13.55;8.25;;;;;;;2.76;88.59;100009.13;5098269;28;20051;-75
2023/12/04 02:54:41;;;;;;;12.02;7.95;;;;;;;2.74;88.76;100003.03;5074484;28;20488;-75
2023/12/04 02:57:07;;;;;;;10.82;7.50;;;;;;;2.64;89.40;100010.16;5092506;28;20404;-75
2023/12/04 02:59:32;;;;;;;11.88;7.47;;;;;;;2.64;90.42;100007.41;5092336;28;20063;-75
2023/12/04 03:01:58;;;;;;;9.75;6.45;;;;;;;2.66;91.43;100012.66;5092420;28;20552;-75
2023/12/04 03:04:24;;;;;;;11.82;8.35;;;;;;;2.71;91.23;100020.16;5074297;28;20080;-75
2023/12/04 03:06:49;;;;;;;15.23;9.60;;;;;;;2.62;91.59;100025.38;5092348;28;20019;-75
2023/12/04 03:09:15;;;;;;;11.35;8.25;;;;;;;2.60;90.99;100025.63;5092349;28;20020;-75
2023/12/04 03:11:41;;;;;;;14.35;9.55;;;;;;;2.60;90.89;100035.84;5074067;28;20059;-75
2023/12/04 03:14:06;;;;;;;13.50;9.10;;;;;;;2.66;92.16;100041.13;5097619;28;20084;-75
2023/12/04 03:16:32;;;;;;;12.75;8.65;;;;;;;2.66;90.84;100048.59;5092969;28;20027;-75
2023/12/04 03:18:57;;;;;;;13.38;7.90;;;;;;;2.67;91.09;100053.84;5112614;28;20030;-75
2023/12/04 03:21:23;;;;;;;12.07;8.00;;;;;;;2.71;89.75;100056.06;5093503;28;20031;-75
2023/12/04 03:23:48;;;;;;;14.55;8.48;;;;;;;2.68;90.28;100065.72;5092509;28;20034;-75
2023/12/04 03:26:14;;;;;;;13.43;7.90;;;;;;;2.70;89.17;100062.69;5112389;28;20023;-75
2023/12/04 03:28:42;;;;;;;14.50;9.65;;;;;;;2.71;89.75;100070.69;5112093;28;20076;-75
2023/12/04 03:31:07;;;;;;;14.30;9.25;;;;;;;2.65;89.63;100067.09;5112177;28;20023;-75
2023/12/04 03:33:33;;;;;;;12.50;8.43;;;;;;;2.74;89.17;100074.88;5109162;28;20514;-75
2023/12/04 03:36:01;;;;;;;12.60;7.82;;;;;;;2.71;88.69;100064.34;5112222;28;20027;-75
2023/12/04 03:38:27;;;;;;;13.02;8.00;;;;;;;2.77;88.28;100074.31;5112162;28;20027;-75
2023/12/04 03:40:52;;;;;;;18.35;9.07;;;;;;;2.74;88.30;100061.06;5111871;28;20023;-75
2023/12/04 03:43:18;;;;;;;14.10;8.18;;;;;;;2.79;88.69;100078.50;5095360;28;20031;-75
2023/12/04 03:45:43;;;;;;;16.20;9.23;;;;;;;2.80;87.59;100084.84;5091726;28;20028;-75
2023/12/04 03:48:09;;;;;;;13.20;8.23;;;;;;;2.80;87.57;100084.84;5091592;28;20055;-75
2023/12/04 03:50:34;;;;;;;13.02;8.50;;;;;;;2.83;86.73;100097.28;5078727;28;20028;-75
2023/12/04 03:53:00;;;;;;;10.80;7.70;;;;;;;2.62;87.80;100091.66;5107305;28;20503;-75
2023/12/04 03:55:25;;;;;;;11.52;7.53;;;;;;;2.56;87.94;100089.94;5073434;28;20077;-75
2023/12/04 03:57:51;;;;;;;13.80;9.10;;;;;;;2.66;86.26;100090.88;5090826;28;20260;-75
2023/12/04 04:00:17;;;;;;;11.93;7.68;;;;;;;2.66;85.51;100084.50;5091575;28;20528;-75
2023/12/04 04:02:44;;;;;;;15.00;8.50;;;;;;;2.53;84.17;100094.06;5077746;28;20122;-75
2023/12/04 04:05:09;;;;;;;10.05;7.00;;;;;;;2.50;85.27;100094.59;5075298;28;20027;-75
2023/12/04 04:07:35;;;;;;;14.55;8.38;;;;;;;2.55;84.21;100099.34;5088674;28;20522;-75
2023/12/04 04:10:01;;;;;;;13.95;8.73;;;;;;;2.37;84.77;100105.00;5110418;28;20131;-75
2023/12/04 04:12:27;;;;;;;15.93;10.05;;;;;;;2.41;86.16;100113.59;5111594;28;20483;-75
2023/12/04 04:14:52;;;;;;;11.00;7.75;;;;;;;2.41;82.81;100112.75;5110855;28;20031;-75
2023/12/04 04:17:18;;;;;;;13.20;8.18;;;;;;;2.24;82.21;100122.88;5111476;28;20031;-75
2023/12/04 04:19:43;;;;;;;18.55;9.23;;;;;;;2.16;81.34;100134.38;5093264;28;20034;-75
2023/12/04 04:22:09;;;;;;;15.23;10.05;;;;;;;2.04;82.30;100134.53;5102059;28;20035;-75
2023/12/04 04:24:35;;;;;;;18.65;10.27;;;;;;;2.00;82.83;100133.41;5084071;28;20016;-75
2023/12/04 04:27:00;;;;;;;14.43;9.23;;;;;;;1.93;81.05;100130.03;5093088;28;20051;-75
2023/12/04 04:29:25;;;;;;;20.73;11.25;;;;;;;1.97;82.50;100133.94;5111509;28;20031;-75
2023/12/04 04:31:51;;;;;;;19.02;10.63;;;;;;;2.05;81.54;100146.44;5111359;28;20027;-75
2023/12/04 04:34:16;;;;;;;18.42;11.60;;;;;;;2.03;81.41;100148.63;5083262;28;20035;-76
2023/12/04 04:36:45;;;;;;;19.13;10.48;;;;;;;1.98;81.67;100149.41;5090992;28;20024;-76
2023/12/04 04:39:13;;;;;;;19.98;11.90;;;;;;;1.98;80.81;100151.31;5091095;28;20031;-75
2023/12/04 04:41:39;;;;;;;20.23;11.82;;;;;;;1.98;82.64;100151.31;5090756;28;20043;-75
2023/12/04 04:44:05;;;;;;;17.65;10.68;;;;;;;2.00;83.14;100155.50;5097131;28;20023;-75
2023/12/04 04:46:30;;;;;;;23.55;12.60;;;;;;;2.03;82.14;100160.47;5093459;28;20464;-76
2023/12/04 04:48:56;;;;;;;18.73;10.65;;;;;;;2.07;80.85;100169.06;5111158;28;20016;-75
2023/12/04 04:51:22;;;;;;;22.30;14.07;;;;;;;2.04;81.55;100175.94;5108754;28;20023;-76
2023/12/04 04:53:48;;;;;;;19.58;11.77;;;;;;;2.00;80.05;100174.81;5076135;28;20031;-75
2023/12/04 04:56:13;;;;;;;21.42;11.65;;;;;;;1.97;81.42;100175.34;5110913;28;20461;-76
2023/12/04 04:58:39;;;;;;;15.65;10.35;;;;;;;1.86;79.69;100162.53;5104851;28;20020;-76
2023/12/04 05:01:05;;;;;;;18.63;11.05;;;;;;;1.90;80.28;100183.81;5072760;28;20016;-76
2023/12/04 05:03:30;;;;;;;15.85;9.60;;;;;;;1.92;79.79;100183.53;5099897;28;20023;-76
2023/12/04 05:05:56;;;;;;;14.02;8.85;;;;;;;1.95;78.58;100185.81;5090828;28;20019;-75
2023/12/04 05:08:21;;;;;;;20.63;11.82;;;;;;;2.01;79.53;100184.75;5090847;28;20034;-76
2023/12/04 05:10:47;;;;;;;11.95;8.75;;;;;;;1.93;78.02;100187.97;5094624;28;20502;-76
2023/12/04 05:13:12;;;;;;;14.68;8.45;;;;;;;1.93;78.55;100177.78;5076320;28;20020;-75
2023/12/04 05:15:37;;;;;;;13.43;9.25;;;;;;;1.87;79.47;100167.78;5105621;28;20036;-76
2023/12/04 05:18:03;;;;;;;21.10;12.32;;;;;;;1.96;79.70;100196.56;5094511;28;20020;-75
2023/12/04 05:20:28;;;;;;;19.05;11.18;;;;;;;2.01;78.73;100201.31;5076370;28;20020;-75
2023/12/04 05:22:54;;;;;;;16.90;9.32;;;;;;;1.98;78.92;100209.25;5109524;28;20030;-75
2023/12/04 05:25:19;;;;;;;17.73;10.40;;;;;;;1.98;78.20;100201.84;5095118;28;20024;-75
2023/12/04 05:27:45;;;;;;;15.95;9.68;;;;;;;2.05;77.36;100216.28;5076131;28;20020;-75
2023/12/04 05:30:11;;;;;;;17.67;10.23;;;;;;;1.92;75.93;100227.69;5084483;28;20559;-75
2023/12/04 05:32:37;;;;;;;17.50;9.98;;;;;;;1.92;76.72;100220.25;5104191;28;20107;-75
2023/12/04 05:35:03;;;;;;;18.70;10.30;;;;;;;1.93;77.51;100223.84;5092700;28;20024;-75
2023/12/04 05:37:29;;;;;;;16.98;10.32;;;;;;;1.93;78.38;100223.84;5094116;28;20450;-76
2023/12/04 05:39:56;;;;;;;24.60;13.40;;;;;;;1.92;78.57;100228.53;5099141;28;20030;-76
2023/12/04 05:42:21;;;;;;;25.65;13.93;;;;;;;2.05;79.37;100220.94;5106362;28;20658;-75
2023/12/04 05:44:46;;;;;;;22.33;12.68;;;;;;;2.14;78.93;100229.59;5090907;28;20030;-76
2023/12/04 05:47:12;;;;;;;29.40;13.73;;;;;;;2.24;79.54;100235.22;5094490;28;20031;-75
2023/12/04 05:49:37;;;;;;;21.50;12.05;;;;;;;2.23;80.26;100230.78;5114112;28;20019;-77
2023/12/04 05:52:03;;;;;;;22.52;12.90;;;;;;;2.30;80.23;100236.94;5112250;28;20020;-78
2023/12/04 05:54:28;;;;;;;31.60;15.27;;;;;;;2.23;80.76;100236.31;5111837;28;20023;-78
2023/12/04 05:56:54;;;;;;;21.58;12.02;;;;;;;2.20;81.76;100236.84;5110996;28;20034;-77
2023/12/04 05:59:19;;;;;;;15.25;11.15;;;;;;;2.20;81.23;100236.84;5081834;28;20024;-74
2023/12/04 06:01:45;;;;;;;23.13;12.25;;;;;;;2.29;81.83;100240.78;5093521;28;20057;-77
2023/12/04 06:04:10;;;;;;;34.88;18.80;;;;;;;2.17;81.45;100243.72;5093622;28;20449;-76
2023/12/04 06:06:36;;;;;;;41.55;21.65;;;;;;;2.14;81.89;100243.38;5093588;28;20027;-75
2023/12/04 06:09:01;;;;;;;39.30;19.92;;;;;;;2.00;80.60;100248.50;5092031;28;20027;-77
2023/12/04 06:11:27;;;;;;;41.88;20.85;;;;;;;2.11;81.99;100261.28;5097290;28;20020;-77
2023/12/04 06:13:52;;;;;;;26.83;15.00;;;;;;;2.02;80.12;100257.34;5095119;28;20030;-76
2023/12/04 06:16:17;;;;;;;24.33;12.65;;;;;;;2.06;81.03;100250.22;5093408;28;20030;-77
2023/12/04 06:18:43;;;;;;;23.85;13.18;;;;;;;2.05;80.47;100267.88;5093310;28;20016;-77
2023/12/04 06:21:08;;;;;;;33.03;15.90;;;;;;;1.91;80.72;100259.97;5092454;28;20024;-76
2023/12/04 06:23:34;;;;;;;38.92;17.88;;;;;;;2.06;80.02;100280.56;5090055;28;20055;-75
2023/12/04 06:26:01;;;;;;;26.63;15.27;;;;;;;2.05;79.61;100278.91;5090866;28;20496;-76
2023/12/04 06:28:26;;;;;;;27.88;11.50;;;;;;;2.10;78.76;100285.31;5092399;28;20023;-76
2023/12/04 06:30:52;;;;;;;24.33;14.60;;;;;;;2.15;78.49;100284.53;5086660;28;20035;-73
2023/12/04 06:33:20;;;;;;;20.77;11.00;;;;;;;2.22;77.93;100290.69;5108276;28;20106;-76
2023/12/04 06:35:45;;;;;;;31.13;12.43;;;;;;;2.18;76.72;100289.53;5101857;28;20849;-77
2023/12/04 06:38:16;;;;;;;27.77;14.98;;;;;;;2.16;78.20;100286.22;5112719;28;20147;-76
2023/12/04 06:40:41;;;;;;;;;;;;;;;2.18;77.95;100294.25;5110870;28;20019;-74
2023/12/04 06:43:07;;;;;;;25.83;13.75;;;;;;;2.07;78.70;100287.75;5093007;28;19908;-76
2023/12/04 06:45:33;;;;;;;36.83;15.27;;;;;;;2.14;80.16;100291.16;5091614;28;20058;-75
2023/12/04 06:47:59;;;;;;;31.45;15.45;;;;;;;2.17;78.67;100295.31;5084151;28;20035;-76
2023/12/04 06:50:25;;;;;;;28.27;13.45;;;;;;;2.27;78.42;100303.72;5108078;28;20476;-77
2023/12/04 06:52:51;;;;;;;27.17;15.70;;;;;;;2.20;78.67;100306.66;5092952;28;20019;-75
2023/12/04 06:55:16;;;;;;;24.25;13.85;;;;;;;2.36;79.26;100306.88;5086885;28;20024;-76
2023/12/04 06:57:41;;;;;;;28.27;13.98;;;;;;;2.34;79.39;100309.88;5101777;28;20389;-73
2023/12/04 07:00:08;;;;;;;36.95;17.25;;;;;;;2.47;78.90;100302.28;5102808;28;20069;-73
2023/12/04 07:02:33;;;;;;;30.00;15.32;;;;;;;2.58;80.05;100306.81;5110427;28;20016;-72
2023/12/04 07:04:59;;;;;;;35.15;17.08;;;;;;;2.48;77.15;100309.47;5110488;28;20065;-73
2023/12/04 07:07:25;;;;;;;41.58;19.67;;;;;;;2.40;77.75;100302.47;5109235;28;20050;-77
2023/12/04 07:09:50;;;;;;;32.50;15.55;;;;;;;2.55;76.94;100307.34;5091723;28;20108;-75
2023/12/04 07:12:15;;;;;;;22.90;13.23;;;;;;;2.62;76.37;100309.88;5097616;28;20053;-73
2023/12/04 07:14:41;;;;;;;18.55;10.80;;;;;;;2.47;76.19;100307.78;5111791;28;20035;-74
2023/12/04 07:17:07;;;;;;;25.63;13.48;;;;;;;2.65;78.28;100304.69;5112092;28;20073;-74
2023/12/04 07:19:32;;;;;;;23.10;14.00;;;;;;;2.72;76.92;100311.91;5111908;28;20445;-74
2023/12/04 07:21:58;;;;;;;18.90;9.88;;;;;;;2.75;75.47;100308.59;5093038;28;20024;-73
2023/12/04 07:24:23;;;;;;;17.65;10.77;;;;;;;2.65;73.95;100307.44;5074651;28;20412;-73
2023/12/04 07:26:49;;;;;;;19.52;11.93;;;;;;;2.62;75.33;100301.59;5108774;28;20088;-73
2023/12/04 07:29:14;;;;;;;15.63;9.85;;;;;;;2.25;75.71;100311.41;5110465;28;20030;-73
2023/12/04 07:31:41;;;;;;;21.77;11.40;;;;;;;2.30;76.66;100310.66;5110144;28;20027;-74
2023/12/04 07:34:07;;;;;;;20.50;10.98;;;;;;;2.05;77.52;100309.25;5098046;28;20028;-72
2023/12/04 07:36:32;;;;;;;20.95;11.75;;;;;;;2.36;79.55;100315.97;5110540;28;20034;-71
2023/12/04 07:38:58;;;;;;;24.02;12.70;;;;;;;2.28;78.65;100310.91;5085588;28;20026;-71
2023/12/04 07:41:23;;;;;;;18.17;11.57;;;;;;;2.42;77.69;100314.09;5105576;28;20428;-72
2023/12/04 07:43:49;;;;;;;31.88;18.75;;;;;;;2.37;76.95;100323.16;5083177;28;20063;-73
2023/12/04 07:46:14;;;;;;;34.85;15.18;;;;;;;2.64;77.75;100318.75;5077739;28;20116;-71
2023/12/04 07:48:40;;;;;;;22.70;12.80;;;;;;;2.89;75.43;100309.03;5092256;28;20023;-74
2023/12/04 07:51:07;;;;;;;20.20;11.82;;;;;;;3.13;74.66;100322.47;5109932;28;20032;-74
2023/12/04 07:53:32;;;;;;;20.75;13.98;;;;;;;3.51;74.14;100315.84;5092461;28;20039;-74
2023/12/04 07:56:02;;;;;;;32.25;18.52;;;;;;;3.43;74.24;100319.09;5094738;28;20492;-74
2023/12/04 07:58:28;;;;;;;24.02;12.95;;;;;;;3.65;73.40;100315.38;5077703;28;20034;-73
2023/12/04 08:00:53;;;;;;;15.95;10.05;;;;;;;3.61;70.14;100315.06;5100767;28;20422;-73
2023/12/04 08:03:18;;;;;;;20.95;10.75;;;;;;;3.56;70.30;100330.81;5104387;28;20024;-74
2023/12/04 08:05:44;;;;;;;22.92;13.25;;;;;;;3.43;70.76;100321.88;5111024;28;20024;-75
2023/12/04 08:08:09;;;;;;;17.63;10.68;;;;;;;3.28;71.57;100324.53;5109910;28;20019;-74
2023/12/04 08:10:35;;;;;;;23.35;13.68;;;;;;;3.66;73.21;100305.97;5092427;28;20020;-76
2023/12/04 08:13:00;;;;;;;20.40;11.15;;;;;;;3.69;70.63;100304.59;5088384;28;20077;-75
2023/12/04 08:15:26;;;;;;;21.17;13.40;;;;;;;3.98;71.03;100310.56;5091114;28;20028;-73
2023/12/04 08:17:51;;;;;;;22.85;12.95;;;;;;;3.96;71.32;100312.75;5091256;28;20023;-71
2023/12/04 08:20:17;;;;;;;25.10;13.07;;;;;;;3.98;70.22;100313.34;5092937;28;20020;-73
2023/12/04 08:22:45;;;;;;;17.20;10.35;;;;;;;4.11;68.55;100311.16;5111120;28;20065;-75
2023/12/04 08:25:11;;;;;;;18.45;11.40;;;;;;;4.18;67.78;100308.97;5109357;28;20046;-73
2023/12/04 08:27:36;;;;;;;19.88;11.43;;;;;;;4.25;67.28;100312.31;5101992;28;20492;-72
2023/12/04 08:30:04;;;;;;;16.90;9.77;;;;;;;3.92;66.69;100319.94;5076648;28;20031;-74
2023/12/04 08:32:29;;;;;;;19.33;10.18;;;;;;;4.15;68.77;100317.81;5109679;28;20023;-73
2023/12/04 08:34:55;;;;;;;25.17;11.70;;;;;;;4.17;67.61;100302.59;5111167;28;20522;-75
2023/12/04 08:37:21;;;;;;;16.95;8.77;;;;;;;4.13;66.17;100309.78;5111112;28;20063;-75
2023/12/04 08:39:46;;;;;;;22.00;11.85;;;;;;;4.32;67.78;100307.34;5108320;28;20456;-72
2023/12/04 08:42:12;;;;;;;18.25;9.10;;;;;;;4.18;66.39;100306.19;5108703;28;20100;-73
2023/12/04 08:44:37;;;;;;;21.20;11.50;;;;;;;4.41;66.87;100302.13;5104307;28;20032;-74
2023/12/04 08:47:03;;;;;;;11.45;8.07;;;;;;;4.38;67.17;100301.81;5112320;28;20089;-76
2023/12/04 08:49:29;;;;;;;15.40;8.15;;;;;;;4.17;66.07;100296.22;5099383;28;20019;-74
2023/12/04 08:51:54;;;;;;;14.45;9.38;;;;;;;3.90;67.75;100302.78;5112881;28;20023;-75
2023/12/04 08:54:19;;;;;;;18.05;10.02;;;;;;;4.38;68.78;100310.13;5107775;28;20024;-73
2023/12/04 08:56:45;;;;;;;17.65;9.48;;;;;;;4.39;67.25;100304.31;5101456;28;20024;-75
2023/12/04 08:59:10;;;;;;;19.75;9.25;;;;;;;4.39;68.28;100296.00;5105361;28;20056;-75
2023/12/04 09:01:36;;;;;;;13.52;8.57;;;;;;;4.63;68.52;100292.72;5108880;28;20024;-74
2023/12/04 09:04:01;;;;;;;17.05;10.52;;;;;;;4.59;68.69;100300.78;5112234;28;20140;-76
2023/12/04 09:06:27;;;;;;;14.25;9.63;;;;;;;4.88;68.07;100300.25;5114835;28;20023;-75
2023/12/04 09:08:52;;;;;;;19.10;9.40;;;;;;;4.84;67.49;100301.91;5113187;28;20400;-75
2023/12/04 09:11:18;;;;;;;21.92;11.23;;;;;;;5.08;68.53;100284.72;5096407;28;20047;-73
2023/12/04 09:13:43;;;;;;;15.23;9.45;;;;;;;5.11;67.28;100281.38;5114262;28;20492;-75
2023/12/04 09:16:09;;;;;;;12.75;8.63;;;;;;;5.12;66.96;100283.03;5101031;28;20042;-74
2023/12/04 09:18:34;;;;;;;16.52;9.85;;;;;;;5.13;67.57;100281.94;5107569;28;20020;-74
2023/12/04 09:21:00;;;;;;;16.20;9.18;;;;;;;5.31;67.66;100272.19;5105434;28;20095;-74
2023/12/04 09:23:25;;;;;;;22.85;10.82;;;;;;;5.30;67.74;100278.00;5089140;28;20058;-74
2023/12/04 09:25:51;;;;;;;18.80;11.50;;;;;;;5.36;67.94;100265.81;5084879;28;20031;-74
2023/12/04 09:28:16;;;;;;;15.00;9.48;;;;;;;5.44;67.82;100270.81;5085260;28;20023;-74
2023/12/04 09:30:42;;;;;;;17.65;11.30;;;;;;;5.47;69.54;100266.59;5097715;28;20039;-73
2023/12/04 09:33:07;;;;;;;14.23;8.52;;;;;;;5.48;66.14;100277.44;5098891;28;20023;-74
2023/12/04 09:35:33;;;;;;;15.15;9.48;;;;;;;5.65;67.63;100270.72;5083648;28;20115;-73
2023/12/04 09:37:59;;;;;;;11.73;7.22;;;;;;;5.62;66.79;100262.97;5108189;28;20055;-73
2023/12/04 09:40:25;;;;;;;22.08;9.05;;;;;;;5.65;67.05;100265.16;5108445;28;20111;-76
2023/12/04 09:42:52;;;;;;;16.17;10.68;;;;;;;5.70;68.51;100265.16;5061781;28;20045;-75
2023/12/04 09:45:18;;;;;;;13.80;9.18;;;;;;;5.88;69.32;100262.88;5089295;28;20355;-75
2023/12/04 09:47:44;;;;;;;16.23;9.18;;;;;;;5.96;67.45;100251.19;5056245;28;20028;-73
2023/12/04 09:50:10;;;;;;;13.15;7.88;;;;;;;5.83;67.55;100268.47;5054957;28;20036;-74
2023/12/04 09:52:35;;;;;;;12.50;8.38;;;;;;;5.96;66.64;100253.97;5057439;28;20017;-75
2023/12/04 09:55:01;;;;;;;11.45;6.68;;;;;;;5.72;66.30;100251.84;5053690;28;20017;-75
2023/12/04 09:57:27;;;;;;;11.32;6.88;;;;;;;5.76;67.59;100261.25;5057575;28;20111;-75
2023/12/04 09:59:52;;;;;;;16.83;8.85;;;;;;;5.79;69.08;100253.47;5057098;28;20029;-75
2023/12/04 10:02:22;;;;;;;12.88;8.15;;;;;;;6.07;68.73;100240.88;5065236;28;20580;-72
2023/12/04 10:04:48;;;;;;;14.00;8.73;;;;;;;6.08;66.96;100250.03;5063813;28;20024;-74
2023/12/04 10:07:13;;;;;;;12.20;7.35;;;;;;;6.05;65.59;100251.44;5061799;28;20028;-73
2023/12/04 10:09:38;;;;;;;14.52;8.70;;;;;;;5.99;64.05;100252.56;5062759;28;20035;-74
2023/12/04 10:12:06;;;;;;;14.00;8.32;;;;;;;5.93;66.54;100242.59;5060273;28;20028;-74
2023/12/04 10:14:35;;;;;;;9.82;8.10;;;;;;;5.90;66.59;100239.28;5064880;28;20082;-74
2023/12/04 10:17:14;;;;;;;12.82;8.00;;;;;;;6.10;67.11;100245.88;5068295;28;20032;-76
2023/12/04 10:19:39;;;;;;;13.55;9.20;;;;;;;6.00;64.59;100241.16;5055464;28;20032;-75
2023/12/04 10:22:10;;;;;;;14.70;8.55;;;;;;;6.14;64.97;100241.41;5066911;28;20025;-76
2023/12/04 10:24:38;;;;;;;14.32;9.20;;;;;;;6.43;66.21;100229.53;5056683;28;20433;-75
2023/12/04 10:27:12;;;;;;;16.55;8.77;;;;;;;6.60;64.10;100239.44;5061753;28;20032;-75
2023/12/04 10:29:53;;;;;;;11.68;7.90;;;;;;;6.53;64.83;100227.81;5060437;28;20029;-74
2023/12/04 10:32:21;;;;;;;14.18;9.18;;;;;;;6.38;63.64;100228.75;5061210;28;20036;-74
2023/12/04 10:34:47;;;;;;;13.45;7.93;;;;;;;6.44;66.11;100216.47;5060101;28;20039;-74
2023/12/04 10:37:13;;;;;;;14.77;10.30;;;;;;;6.57;65.89;100218.59;5059178;28;20058;-74
2023/12/04 10:39:51;;;;;;;11.65;8.30;;;;;;;6.24;64.38;100226.59;5061921;28;20119;-77
2023/12/04 10:42:29;;;;;;;10.68;6.63;;;;;;;6.46;64.82;100228.97;5085494;28;20591;-76
2023/12/04 10:44:58;;;;;;;13.90;8.20;;;;;;;6.56;65.68;100228.06;5089196;28;20028;-76
2023/12/04 10:47:25;;;;;;;11.65;7.65;;;;;;;6.75;64.63;100235.69;5111007;28;20514;-76
2023/12/04 10:49:51;;;;;;;11.10;7.22;;;;;;;6.92;64.00;100226.94;5109801;28;20572;-76
2023/12/04 10:52:19;;;;;;;13.75;8.40;;;;;;;6.82;63.36;100230.63;5106487;28;20102;-76
2023/12/04 10:54:46;;;;;;;10.10;7.35;;;;;;;6.94;62.15;100223.88;5090783;28;20563;-76
2023/12/04 10:57:16;;;;;;;15.40;8.40;;;;;;;6.89;62.85;100230.31;5099305;28;20691;-75
2023/12/04 10:59:43;;;;;;;12.30;8.10;;;;;;;6.98;63.89;100236.06;5097525;28;20116;-73
2023/12/04 11:02:17;;;;;;;15.60;9.27;;;;;;;6.82;64.10;100222.31;5097737;28;20417;-72
2023/12/04 11:04:43;;;;;;;12.13;8.00;;;;;;;7.01;63.54;100235.50;5079012;28;20059;-73
2023/12/04 11:07:09;;;;;;;9.98;6.25;;;;;;;6.82;62.58;100230.63;5086410;28;20487;-73
2023/12/04 11:09:35;;;;;;;11.75;7.72;;;;;;;6.80;61.92;100232.03;5075482;28;20092;-74
2023/12/04 11:12:07;;;;;;;14.48;9.27;;;;;;;6.95;62.51;100229.16;5100878;28;20496;-72
2023/12/04 11:14:42;;;;;;;10.88;7.68;;;;;;;7.01;62.64;100224.38;5098103;28;20027;-74
2023/12/04 11:17:12;;;;;;;11.88;8.57;;;;;;;7.23;62.26;100220.25;5079477;28;20100;-74
2023/12/04 11:19:59;;;;;;;16.90;7.82;;;;;;;7.08;63.40;100215.69;5101931;28;20027;-74